Terminal Aerodrome Forecast
Issued by NWS Upton, NY

Home | Current Version | Previous Version | Text Only | Print | Product List | Glossary On
Versions: 1 2 3 4 5 6 7 8 9 10 11 12 13 14 15 16 17 18 19 20 21 22 23 24 25 26
000
FTUS41 KOKX 302323
TAFBDR
TAF
KBDR 302323Z 0100/0124 15008KT P6SM SCT015 SCT050 BKN120
     FM010600 11005KT 6SM BR VCSH FEW006 BKN015 BKN040
      TEMPO 0108/0112 4SM SHRA
     FM011200 15007KT 6SM -SHRA BR BKN012 BKN025
     FM011500 19009KT P6SM SCT025 BKN040
     FM011800 23013G19KT P6SM SCT050 BKN150=

USA.gov is the U.S. government's official web portal to all federal, state and local government web resources and services.